sensor_id;sensor_type;location;lat;lon;timestamp;temperature;humidity
39219;DHT22;24934;52.752;6.964;2023-09-08T00:01:00;18.20;99.90
39219;DHT22;24934;52.752;6.964;2023-09-08T00:03:25;18.10;99.90
39219;DHT22;24934;52.752;6.964;2023-09-08T00:05:51;18.10;99.90
39219;DHT22;24934;52.752;6.964;2023-09-08T00:08:17;18.00;99.90
39219;DHT22;24934;52.752;6.964;2023-09-08T00:10:42;18.00;99.90
39219;DHT22;24934;52.752;6.964;2023-09-08T00:13:08;17.90;99.90
39219;DHT22;24934;52.752;6.964;2023-09-08T00:15:34;17.90;99.90
39219;DHT22;24934;52.752;6.964;2023-09-08T00:18:00;17.80;99.90
39219;DHT22;24934;52.752;6.964;2023-09-08T00:20:26;17.80;99.90
39219;DHT22;24934;52.752;6.964;2023-09-08T00:22:52;17.80;99.90
39219;DHT22;24934;52.752;6.964;2023-09-08T00:25:17;17.70;99.90
39219;DHT22;24934;52.752;6.964;2023-09-08T00:27:43;17.70;99.90
39219;DHT22;24934;52.752;6.964;2023-09-08T00:30:09;17.70;99.90
39219;DHT22;24934;52.752;6.964;2023-09-08T00:32:35;17.60;99.90
39219;DHT22;24934;52.752;6.964;2023-09-08T00:35:01;17.50;99.90
39219;DHT22;24934;52.752;6.964;2023-09-08T00:37:26;17.50;99.90
39219;DHT22;24934;52.752;6.964;2023-09-08T00:39:52;17.50;99.90
39219;DHT22;24934;52.752;6.964;2023-09-08T00:42:18;17.40;99.90
39219;DHT22;24934;52.752;6.964;2023-09-08T00:44:43;17.40;99.90
39219;DHT22;24934;52.752;6.964;2023-09-08T00:47:09;17.40;99.90
39219;DHT22;24934;52.752;6.964;2023-09-08T00:49:35;17.30;99.90
39219;DHT22;24934;52.752;6.964;2023-09-08T00:52:00;17.20;99.90
39219;DHT22;24934;52.752;6.964;2023-09-08T00:54:26;17.10;99.90
39219;DHT22;24934;52.752;6.964;2023-09-08T00:56:56;17.10;99.90
39219;DHT22;24934;52.752;6.964;2023-09-08T00:59:23;17.00;99.90
39219;DHT22;24934;52.752;6.964;2023-09-08T01:01:50;17.00;99.90
39219;DHT22;24934;52.752;6.964;2023-09-08T01:04:16;16.90;99.90
39219;DHT22;24934;52.752;6.964;2023-09-08T01:06:42;16.80;99.90
39219;DHT22;24934;52.752;6.964;2023-09-08T01:09:09;16.80;99.90
39219;DHT22;24934;52.752;6.964;2023-09-08T01:11:36;16.70;99.90
39219;DHT22;24934;52.752;6.964;2023-09-08T01:14:01;16.70;99.90
39219;DHT22;24934;52.752;6.964;2023-09-08T01:16:27;16.60;99.90
39219;DHT22;24934;52.752;6.964;2023-09-08T01:18:53;16.60;99.90
39219;DHT22;24934;52.752;6.964;2023-09-08T01:26:36;16.60;99.90
39219;DHT22;24934;52.752;6.964;2023-09-08T01:29:03;16.60;99.90
39219;DHT22;24934;52.752;6.964;2023-09-08T01:31:30;16.70;99.90
39219;DHT22;24934;52.752;6.964;2023-09-08T01:33:56;16.70;99.90
39219;DHT22;24934;52.752;6.964;2023-09-08T01:36:22;16.70;99.90
39219;DHT22;24934;52.752;6.964;2023-09-08T01:38:48;16.70;99.90
39219;DHT22;24934;52.752;6.964;2023-09-08T01:41:14;16.70;99.90
39219;DHT22;24934;52.752;6.964;2023-09-08T01:43:39;16.60;99.90
39219;DHT22;24934;52.752;6.964;2023-09-08T01:46:05;16.60;99.90
39219;DHT22;24934;52.752;6.964;2023-09-08T01:48:30;16.50;99.90
39219;DHT22;24934;52.752;6.964;2023-09-08T01:50:56;16.40;99.90
39219;DHT22;24934;52.752;6.964;2023-09-08T01:53:22;16.30;99.90
39219;DHT22;24934;52.752;6.964;2023-09-08T01:55:47;16.30;99.90
39219;DHT22;24934;52.752;6.964;2023-09-08T01:58:13;16.30;99.90
39219;DHT22;24934;52.752;6.964;2023-09-08T02:00:38;16.20;99.90
39219;DHT22;24934;52.752;6.964;2023-09-08T02:03:04;16.20;99.90
39219;DHT22;24934;52.752;6.964;2023-09-08T02:05:30;16.10;99.90
39219;DHT22;24934;52.752;6.964;2023-09-08T02:07:57;16.10;99.90
39219;DHT22;24934;52.752;6.964;2023-09-08T02:10:23;16.00;99.90
39219;DHT22;24934;52.752;6.964;2023-09-08T02:12:48;16.00;99.90
39219;DHT22;24934;52.752;6.964;2023-09-08T02:15:14;16.00;99.90
39219;DHT22;24934;52.752;6.964;2023-09-08T02:17:41;16.10;99.90
39219;DHT22;24934;52.752;6.964;2023-09-08T02:20:07;16.00;99.90
39219;DHT22;24934;52.752;6.964;2023-09-08T02:22:33;16.00;99.90
39219;DHT22;24934;52.752;6.964;2023-09-08T02:24:58;15.90;99.90
39219;DHT22;24934;52.752;6.964;2023-09-08T02:27:24;15.90;99.90
39219;DHT22;24934;52.752;6.964;2023-09-08T02:29:50;15.90;99.90
39219;DHT22;24934;52.752;6.964;2023-09-08T02:32:15;15.80;99.90
39219;DHT22;24934;52.752;6.964;2023-09-08T02:34:41;15.80;99.90
39219;DHT22;24934;52.752;6.964;2023-09-08T02:37:07;15.80;99.90
39219;DHT22;24934;52.752;6.964;2023-09-08T02:39:33;15.80;99.90
39219;DHT22;24934;52.752;6.964;2023-09-08T02:41:59;15.70;99.90
39219;DHT22;24934;52.752;6.964;2023-09-08T02:44:25;15.70;99.90
39219;DHT22;24934;52.752;6.964;2023-09-08T02:46:52;15.60;99.90
39219;DHT22;24934;52.752;6.964;2023-09-08T02:49:17;15.60;99.90
39219;DHT22;24934;52.752;6.964;2023-09-08T02:51:46;15.50;99.90
39219;DHT22;24934;52.752;6.964;2023-09-08T02:54:12;15.50;99.90
39219;DHT22;24934;52.752;6.964;2023-09-08T02:56:40;15.40;99.90
39219;DHT22;24934;52.752;6.964;2023-09-08T02:59:06;15.40;99.90
39219;DHT22;24934;52.752;6.964;2023-09-08T03:01:31;15.40;99.90
39219;DHT22;24934;52.752;6.964;2023-09-08T03:03:57;15.40;99.90
39219;DHT22;24934;52.752;6.964;2023-09-08T03:06:22;15.40;99.90
39219;DHT22;24934;52.752;6.964;2023-09-08T03:08:48;15.40;99.90
39219;DHT22;24934;52.752;6.964;2023-09-08T03:11:14;15.40;99.90
39219;DHT22;24934;52.752;6.964;2023-09-08T03:13:40;15.40;99.90
39219;DHT22;24934;52.752;6.964;2023-09-08T03:16:07;15.40;99.90
39219;DHT22;24934;52.752;6.964;2023-09-08T03:18:33;15.40;99.90
39219;DHT22;24934;52.752;6.964;2023-09-08T03:21:02;15.40;99.90
39219;DHT22;24934;52.752;6.964;2023-09-08T03:23:37;15.40;99.90
39219;DHT22;24934;52.752;6.964;2023-09-08T03:26:03;15.40;99.90
39219;DHT22;24934;52.752;6.964;2023-09-08T03:28:28;15.40;99.90
39219;DHT22;24934;52.752;6.964;2023-09-08T03:30:54;15.30;99.90
39219;DHT22;24934;52.752;6.964;2023-09-08T03:33:20;15.30;99.90
39219;DHT22;24934;52.752;6.964;2023-09-08T03:35:45;15.20;99.90
39219;DHT22;24934;52.752;6.964;2023-09-08T03:38:11;15.20;99.90
39219;DHT22;24934;52.752;6.964;2023-09-08T03:40:36;15.20;99.90
39219;DHT22;24934;52.752;6.964;2023-09-08T03:43:03;15.20;99.90
39219;DHT22;24934;52.752;6.964;2023-09-08T03:45:29;15.20;99.90
39219;DHT22;24934;52.752;6.964;2023-09-08T03:47:55;15.20;99.90
39219;DHT22;24934;52.752;6.964;2023-09-08T03:50:20;15.20;99.90
39219;DHT22;24934;52.752;6.964;2023-09-08T03:52:46;15.20;99.90
39219;DHT22;24934;52.752;6.964;2023-09-08T03:55:12;15.30;99.90
39219;DHT22;24934;52.752;6.964;2023-09-08T03:57:37;15.40;99.90
39219;DHT22;24934;52.752;6.964;2023-09-08T04:00:03;15.40;99.90
39219;DHT22;24934;52.752;6.964;2023-09-08T04:02:32;15.30;99.90
39219;DHT22;24934;52.752;6.964;2023-09-08T04:04:58;15.40;99.90
39219;DHT22;24934;52.752;6.964;2023-09-08T04:07:24;15.40;99.90
39219;DHT22;24934;52.752;6.964;2023-09-08T04:09:49;15.40;99.90
39219;DHT22;24934;52.752;6.964;2023-09-08T04:12:15;15.40;99.90
39219;DHT22;24934;52.752;6.964;2023-09-08T04:14:41;15.40;99.90
39219;DHT22;24934;52.752;6.964;2023-09-08T04:17:06;15.40;99.90
39219;DHT22;24934;52.752;6.964;2023-09-08T04:19:33;15.40;99.90
39219;DHT22;24934;52.752;6.964;2023-09-08T04:21:59;15.40;99.90
39219;DHT22;24934;52.752;6.964;2023-09-08T04:24:24;15.40;99.90
39219;DHT22;24934;52.752;6.964;2023-09-08T04:26:50;15.40;99.90
39219;DHT22;24934;52.752;6.964;2023-09-08T04:29:15;15.30;99.90
39219;DHT22;24934;52.752;6.964;2023-09-08T04:31:41;15.30;99.90
39219;DHT22;24934;52.752;6.964;2023-09-08T04:34:07;15.20;99.90
39219;DHT22;24934;52.752;6.964;2023-09-08T04:36:35;15.20;99.90
39219;DHT22;24934;52.752;6.964;2023-09-08T04:39:00;15.20;99.90
39219;DHT22;24934;52.752;6.964;2023-09-08T04:41:26;15.10;99.90
39219;DHT22;24934;52.752;6.964;2023-09-08T04:43:54;15.20;99.90
39219;DHT22;24934;52.752;6.964;2023-09-08T04:46:26;15.20;99.90
39219;DHT22;24934;52.752;6.964;2023-09-08T04:48:52;15.20;99.90
39219;DHT22;24934;52.752;6.964;2023-09-08T04:51:17;15.20;99.90
39219;DHT22;24934;52.752;6.964;2023-09-08T04:53:43;15.20;99.90
39219;DHT22;24934;52.752;6.964;2023-09-08T04:56:08;15.20;99.90
39219;DHT22;24934;52.752;6.964;2023-09-08T04:58:34;15.20;99.90
39219;DHT22;24934;52.752;6.964;2023-09-08T05:01:00;15.20;99.90
39219;DHT22;24934;52.752;6.964;2023-09-08T05:03:25;15.20;99.90
39219;DHT22;24934;52.752;6.964;2023-09-08T05:05:51;15.20;99.90
39219;DHT22;24934;52.752;6.964;2023-09-08T05:08:17;15.20;99.90
39219;DHT22;24934;52.752;6.964;2023-09-08T05:10:44;15.20;99.90
39219;DHT22;24934;52.752;6.964;2023-09-08T05:13:10;15.20;99.90
39219;DHT22;24934;52.752;6.964;2023-09-08T05:15:35;15.20;99.90
39219;DHT22;24934;52.752;6.964;2023-09-08T05:18:01;15.20;99.90
39219;DHT22;24934;52.752;6.964;2023-09-08T05:20:26;15.20;99.90
39219;DHT22;24934;52.752;6.964;2023-09-08T05:22:55;15.20;99.90
39219;DHT22;24934;52.752;6.964;2023-09-08T05:25:20;15.20;99.90
39219;DHT22;24934;52.752;6.964;2023-09-08T05:27:48;15.20;99.90
39219;DHT22;24934;52.752;6.964;2023-09-08T05:30:14;15.30;99.90
39219;DHT22;24934;52.752;6.964;2023-09-08T05:32:40;15.30;99.90
39219;DHT22;24934;52.752;6.964;2023-09-08T05:35:05;15.30;99.90
39219;DHT22;24934;52.752;6.964;2023-09-08T05:37:31;15.30;99.90
39219;DHT22;24934;52.752;6.964;2023-09-08T05:39:57;15.40;99.90
39219;DHT22;24934;52.752;6.964;2023-09-08T05:42:22;15.40;99.90
39219;DHT22;24934;52.752;6.964;2023-09-08T05:44:48;15.50;99.90
39219;DHT22;24934;52.752;6.964;2023-09-08T05:47:14;15.50;99.90
39219;DHT22;24934;52.752;6.964;2023-09-08T05:49:39;15.70;99.90
39219;DHT22;24934;52.752;6.964;2023-09-08T05:52:05;16.10;99.90
39219;DHT22;24934;52.752;6.964;2023-09-08T05:54:33;16.50;99.90
39219;DHT22;24934;52.752;6.964;2023-09-08T05:56:59;16.80;99.90
39219;DHT22;24934;52.752;6.964;2023-09-08T05:59:25;17.10;99.90
39219;DHT22;24934;52.752;6.964;2023-09-08T06:01:50;17.90;99.90
39219;DHT22;24934;52.752;6.964;2023-09-08T06:04:17;18.70;99.90
39219;DHT22;24934;52.752;6.964;2023-09-08T06:06:43;19.40;99.90
39219;DHT22;24934;52.752;6.964;2023-09-08T06:09:08;19.80;99.90
39219;DHT22;24934;52.752;6.964;2023-09-08T06:11:37;19.90;99.90
39219;DHT22;24934;52.752;6.964;2023-09-08T06:14:03;19.70;99.90
39219;DHT22;24934;52.752;6.964;2023-09-08T06:16:28;19.80;99.90
39219;DHT22;24934;52.752;6.964;2023-09-08T06:18:54;20.00;99.90
39219;DHT22;24934;52.752;6.964;2023-09-08T06:21:19;20.80;99.90
39219;DHT22;24934;52.752;6.964;2023-09-08T06:23:45;22.00;99.90
39219;DHT22;24934;52.752;6.964;2023-09-08T06:26:12;22.90;99.90
39219;DHT22;24934;52.752;6.964;2023-09-08T06:28:40;23.70;99.90
39219;DHT22;24934;52.752;6.964;2023-09-08T06:31:08;24.10;99.90
39219;DHT22;24934;52.752;6.964;2023-09-08T06:33:34;24.10;99.90
39219;DHT22;24934;52.752;6.964;2023-09-08T06:36:00;23.80;99.90
39219;DHT22;24934;52.752;6.964;2023-09-08T06:38:25;24.00;99.90
39219;DHT22;24934;52.752;6.964;2023-09-08T06:40:51;24.50;99.90
39219;DHT22;24934;52.752;6.964;2023-09-08T06:43:18;25.20;99.90
39219;DHT22;24934;52.752;6.964;2023-09-08T06:45:50;25.70;99.90
39219;DHT22;24934;52.752;6.964;2023-09-08T06:48:16;26.20;99.90
39219;DHT22;24934;52.752;6.964;2023-09-08T06:50:42;26.30;99.90
39219;DHT22;24934;52.752;6.964;2023-09-08T06:53:08;27.00;99.90
39219;DHT22;24934;52.752;6.964;2023-09-08T06:55:33;27.70;99.90
39219;DHT22;24934;52.752;6.964;2023-09-08T06:57:59;28.00;99.90
39219;DHT22;24934;52.752;6.964;2023-09-08T07:00:25;28.30;99.90
39219;DHT22;24934;52.752;6.964;2023-09-08T07:02:51;28.40;99.90
39219;DHT22;24934;52.752;6.964;2023-09-08T07:05:17;28.60;99.90
39219;DHT22;24934;52.752;6.964;2023-09-08T07:07:42;29.20;99.90
39219;DHT22;24934;52.752;6.964;2023-09-08T07:10:08;29.30;99.90
39219;DHT22;24934;52.752;6.964;2023-09-08T07:12:34;29.70;99.90
39219;DHT22;24934;52.752;6.964;2023-09-08T07:15:00;30.40;99.90
39219;DHT22;24934;52.752;6.964;2023-09-08T07:17:26;31.00;99.90
39219;DHT22;24934;52.752;6.964;2023-09-08T07:19:52;30.80;99.90
39219;DHT22;24934;52.752;6.964;2023-09-08T07:22:18;30.90;99.90
39219;DHT22;24934;52.752;6.964;2023-09-08T07:24:44;31.60;99.90
39219;DHT22;24934;52.752;6.964;2023-09-08T07:27:13;32.00;99.90
39219;DHT22;24934;52.752;6.964;2023-09-08T07:29:40;32.80;99.90
39219;DHT22;24934;52.752;6.964;2023-09-08T07:32:06;32.90;99.90
39219;DHT22;24934;52.752;6.964;2023-09-08T07:34:32;32.90;99.90
39219;DHT22;24934;52.752;6.964;2023-09-08T07:37:01;32.30;99.90
39219;DHT22;24934;52.752;6.964;2023-09-08T07:39:26;31.80;99.90
39219;DHT22;24934;52.752;6.964;2023-09-08T07:41:57;31.80;99.90
39219;DHT22;24934;52.752;6.964;2023-09-08T07:44:24;31.80;99.90
39219;DHT22;24934;52.752;6.964;2023-09-08T07:46:50;31.70;99.90
39219;DHT22;24934;52.752;6.964;2023-09-08T07:49:19;32.50;99.90
39219;DHT22;24934;52.752;6.964;2023-09-08T07:51:45;31.60;99.90
39219;DHT22;24934;52.752;6.964;2023-09-08T07:54:11;32.80;99.90
39219;DHT22;24934;52.752;6.964;2023-09-08T07:56:37;32.50;99.90
39219;DHT22;24934;52.752;6.964;2023-09-08T07:59:02;33.00;99.90
39219;DHT22;24934;52.752;6.964;2023-09-08T08:01:28;33.30;99.90
39219;DHT22;24934;52.752;6.964;2023-09-08T08:03:54;33.70;99.90
39219;DHT22;24934;52.752;6.964;2023-09-08T08:06:19;34.00;99.90
39219;DHT22;24934;52.752;6.964;2023-09-08T08:08:45;34.20;99.90
39219;DHT22;24934;52.752;6.964;2023-09-08T08:11:15;33.90;99.90
39219;DHT22;24934;52.752;6.964;2023-09-08T08:13:43;33.60;99.90
39219;DHT22;24934;52.752;6.964;2023-09-08T08:16:08;33.60;99.90
39219;DHT22;24934;52.752;6.964;2023-09-08T08:18:34;33.30;99.90
39219;DHT22;24934;52.752;6.964;2023-09-08T08:21:00;33.80;99.90
39219;DHT22;24934;52.752;6.964;2023-09-08T08:23:28;34.00;99.90
39219;DHT22;24934;52.752;6.964;2023-09-08T08:25:56;33.80;99.90
39219;DHT22;24934;52.752;6.964;2023-09-08T08:28:22;33.30;99.90
39219;DHT22;24934;52.752;6.964;2023-09-08T08:30:47;33.50;99.90
39219;DHT22;24934;52.752;6.964;2023-09-08T08:33:14;33.80;99.90
39219;DHT22;24934;52.752;6.964;2023-09-08T08:35:39;34.50;99.90
39219;DHT22;24934;52.752;6.964;2023-09-08T08:38:05;34.60;99.90
39219;DHT22;24934;52.752;6.964;2023-09-08T08:40:31;34.40;99.90
39219;DHT22;24934;52.752;6.964;2023-09-08T08:42:59;35.00;99.90
39219;DHT22;24934;52.752;6.964;2023-09-08T08:45:26;35.70;99.90
39219;DHT22;24934;52.752;6.964;2023-09-08T08:47:53;36.10;99.90
39219;DHT22;24934;52.752;6.964;2023-09-08T08:50:19;35.80;99.80
39219;DHT22;24934;52.752;6.964;2023-09-08T08:52:46;35.10;99.90
39219;DHT22;24934;52.752;6.964;2023-09-08T08:55:12;35.10;99.90
39219;DHT22;24934;52.752;6.964;2023-09-08T08:57:39;35.20;99.90
39219;DHT22;24934;52.752;6.964;2023-09-08T09:00:07;35.10;99.90
39219;DHT22;24934;52.752;6.964;2023-09-08T09:02:39;35.10;99.50
39219;DHT22;24934;52.752;6.964;2023-09-08T09:05:16;34.80;99.90
39219;DHT22;24934;52.752;6.964;2023-09-08T09:07:43;35.40;99.90
39219;DHT22;24934;52.752;6.964;2023-09-08T09:10:10;35.20;99.50
39219;DHT22;24934;52.752;6.964;2023-09-08T09:12:37;35.20;99.90
39219;DHT22;24934;52.752;6.964;2023-09-08T09:15:03;35.00;99.90
39219;DHT22;24934;52.752;6.964;2023-09-08T09:17:32;34.80;99.20
39219;DHT22;24934;52.752;6.964;2023-09-08T09:20:13;34.80;99.10
39219;DHT22;24934;52.752;6.964;2023-09-08T09:22:40;34.50;99.20
39219;DHT22;24934;52.752;6.964;2023-09-08T09:25:06;34.90;99.90
39219;DHT22;24934;52.752;6.964;2023-09-08T09:27:33;35.40;99.90
39219;DHT22;24934;52.752;6.964;2023-09-08T09:30:03;35.40;98.60
39219;DHT22;24934;52.752;6.964;2023-09-08T09:32:29;35.00;99.20
39219;DHT22;24934;52.752;6.964;2023-09-08T09:34:57;34.90;99.00
39219;DHT22;24934;52.752;6.964;2023-09-08T09:37:23;35.30;99.10
39219;DHT22;24934;52.752;6.964;2023-09-08T09:39:53;35.60;99.60
39219;DHT22;24934;52.752;6.964;2023-09-08T09:42:19;35.20;99.90
39219;DHT22;24934;52.752;6.964;2023-09-08T09:44:49;34.90;99.60
39219;DHT22;24934;52.752;6.964;2023-09-08T09:47:17;35.30;99.90
39219;DHT22;24934;52.752;6.964;2023-09-08T09:49:47;34.40;99.00
39219;DHT22;24934;52.752;6.964;2023-09-08T09:52:19;33.90;99.50
39219;DHT22;24934;52.752;6.964;2023-09-08T09:54:45;34.30;99.80
39219;DHT22;24934;52.752;6.964;2023-09-08T09:57:15;34.20;99.90
39219;DHT22;24934;52.752;6.964;2023-09-08T09:59:44;34.40;99.20
39219;DHT22;24934;52.752;6.964;2023-09-08T10:02:14;34.00;99.20
39219;DHT22;24934;52.752;6.964;2023-09-08T10:04:40;34.70;98.50
39219;DHT22;24934;52.752;6.964;2023-09-08T10:07:07;35.40;98.90
39219;DHT22;24934;52.752;6.964;2023-09-08T10:09:33;35.70;98.00
39219;DHT22;24934;52.752;6.964;2023-09-08T10:12:05;35.50;98.10
39219;DHT22;24934;52.752;6.964;2023-09-08T10:14:35;35.50;97.60
39219;DHT22;24934;52.752;6.964;2023-09-08T10:17:02;35.50;98.60
39219;DHT22;24934;52.752;6.964;2023-09-08T10:19:28;35.40;97.70
39219;DHT22;24934;52.752;6.964;2023-09-08T10:22:00;35.50;97.60
39219;DHT22;24934;52.752;6.964;2023-09-08T10:24:35;35.90;98.20
39219;DHT22;24934;52.752;6.964;2023-09-08T10:27:09;36.90;97.70
39219;DHT22;24934;52.752;6.964;2023-09-08T10:29:38;36.90;96.30
39219;DHT22;24934;52.752;6.964;2023-09-08T10:32:06;36.60;96.80
39219;DHT22;24934;52.752;6.964;2023-09-08T10:34:33;36.50;96.90
39219;DHT22;24934;52.752;6.964;2023-09-08T10:36:59;36.40;97.00
39219;DHT22;24934;52.752;6.964;2023-09-08T10:39:35;37.20;97.00
39219;DHT22;24934;52.752;6.964;2023-09-08T10:42:23;36.90;96.30
39219;DHT22;24934;52.752;6.964;2023-09-08T10:45:01;36.60;96.70
39219;DHT22;24934;52.752;6.964;2023-09-08T10:47:41;36.40;96.80
39219;DHT22;24934;52.752;6.964;2023-09-08T10:50:27;36.20;97.40
39219;DHT22;24934;52.752;6.964;2023-09-08T10:53:17;35.70;97.20
39219;DHT22;24934;52.752;6.964;2023-09-08T10:55:43;35.70;97.40
39219;DHT22;24934;52.752;6.964;2023-09-08T10:58:20;35.90;97.60
39219;DHT22;24934;52.752;6.964;2023-09-08T11:00:51;36.00;96.50
39219;DHT22;24934;52.752;6.964;2023-09-08T11:03:41;35.70;96.40
39219;DHT22;24934;52.752;6.964;2023-09-08T11:06:10;35.70;96.80
39219;DHT22;24934;52.752;6.964;2023-09-08T11:08:43;35.40;96.40
39219;DHT22;24934;52.752;6.964;2023-09-08T11:11:14;35.20;96.40
39219;DHT22;24934;52.752;6.964;2023-09-08T11:13:40;35.70;97.30
39219;DHT22;24934;52.752;6.964;2023-09-08T11:16:06;35.20;96.70
39219;DHT22;24934;52.752;6.964;2023-09-08T11:18:33;35.40;97.60
39219;DHT22;24934;52.752;6.964;2023-09-08T11:21:02;35.30;97.20
39219;DHT22;24934;52.752;6.964;2023-09-08T11:23:28;35.00;96.80
39219;DHT22;24934;52.752;6.964;2023-09-08T11:25:54;34.60;97.60
39219;DHT22;24934;52.752;6.964;2023-09-08T11:28:24;34.30;97.30
39219;DHT22;24934;52.752;6.964;2023-09-08T11:30:50;34.50;98.60
39219;DHT22;24934;52.752;6.964;2023-09-08T11:33:21;34.70;97.00
39219;DHT22;24934;52.752;6.964;2023-09-08T11:35:53;35.20;97.10
39219;DHT22;24934;52.752;6.964;2023-09-08T11:38:27;34.90;96.80
39219;DHT22;24934;52.752;6.964;2023-09-08T11:40:54;34.70;96.50
39219;DHT22;24934;52.752;6.964;2023-09-08T11:43:20;34.80;96.40
39219;DHT22;24934;52.752;6.964;2023-09-08T11:45:47;35.10;97.50
39219;DHT22;24934;52.752;6.964;2023-09-08T11:48:14;35.20;96.90
39219;DHT22;24934;52.752;6.964;2023-09-08T11:50:42;35.40;97.50
39219;DHT22;24934;52.752;6.964;2023-09-08T11:53:09;35.40;97.80
39219;DHT22;24934;52.752;6.964;2023-09-08T11:55:35;35.30;96.90
39219;DHT22;24934;52.752;6.964;2023-09-08T11:58:02;34.90;96.40
39219;DHT22;24934;52.752;6.964;2023-09-08T12:00:29;35.30;96.90
39219;DHT22;24934;52.752;6.964;2023-09-08T12:03:13;35.20;97.20
39219;DHT22;24934;52.752;6.964;2023-09-08T12:05:40;34.90;97.20
39219;DHT22;24934;52.752;6.964;2023-09-08T12:08:07;34.70;98.20
39219;DHT22;24934;52.752;6.964;2023-09-08T12:10:40;34.90;97.10
39219;DHT22;24934;52.752;6.964;2023-09-08T12:13:07;35.10;96.60
39219;DHT22;24934;52.752;6.964;2023-09-08T12:15:33;34.70;96.90
39219;DHT22;24934;52.752;6.964;2023-09-08T12:18:01;34.70;97.40
39219;DHT22;24934;52.752;6.964;2023-09-08T12:20:27;33.60;97.20
39219;DHT22;24934;52.752;6.964;2023-09-08T12:22:53;33.90;98.00
39219;DHT22;24934;52.752;6.964;2023-09-08T12:25:19;33.70;98.00
39219;DHT22;24934;52.752;6.964;2023-09-08T12:27:45;34.20;97.80
39219;DHT22;24934;52.752;6.964;2023-09-08T12:30:23;34.30;97.60
39219;DHT22;24934;52.752;6.964;2023-09-08T12:32:58;33.90;97.70
39219;DHT22;24934;52.752;6.964;2023-09-08T12:35:25;33.90;97.70
39219;DHT22;24934;52.752;6.964;2023-09-08T12:38:00;34.10;97.80
39219;DHT22;24934;52.752;6.964;2023-09-08T12:40:32;33.90;97.60
39219;DHT22;24934;52.752;6.964;2023-09-08T12:43:01;34.00;98.30
39219;DHT22;24934;52.752;6.964;2023-09-08T12:45:27;33.80;97.30
39219;DHT22;24934;52.752;6.964;2023-09-08T12:47:59;33.50;97.20
39219;DHT22;24934;52.752;6.964;2023-09-08T12:50:26;33.30;97.70
39219;DHT22;24934;52.752;6.964;2023-09-08T12:52:52;33.30;98.60
39219;DHT22;24934;52.752;6.964;2023-09-08T12:55:18;33.70;97.40
39219;DHT22;24934;52.752;6.964;2023-09-08T12:57:44;33.90;97.70
39219;DHT22;24934;52.752;6.964;2023-09-08T13:00:10;34.40;97.90
39219;DHT22;24934;52.752;6.964;2023-09-08T13:02:36;34.30;97.40
39219;DHT22;24934;52.752;6.964;2023-09-08T13:05:02;34.10;97.50
39219;DHT22;24934;52.752;6.964;2023-09-08T13:07:28;34.00;97.20
39219;DHT22;24934;52.752;6.964;2023-09-08T13:09:54;33.70;97.20
39219;DHT22;24934;52.752;6.964;2023-09-08T13:12:20;33.30;98.00
39219;DHT22;24934;52.752;6.964;2023-09-08T13:14:46;33.20;98.00
39219;DHT22;24934;52.752;6.964;2023-09-08T13:17:12;33.60;98.10
39219;DHT22;24934;52.752;6.964;2023-09-08T13:19:37;34.00;98.20
39219;DHT22;24934;52.752;6.964;2023-09-08T13:22:06;34.00;97.60
39219;DHT22;24934;52.752;6.964;2023-09-08T13:24:32;34.10;97.00
39219;DHT22;24934;52.752;6.964;2023-09-08T13:26:59;34.30;97.00
39219;DHT22;24934;52.752;6.964;2023-09-08T13:29:25;34.50;97.20
39219;DHT22;24934;52.752;6.964;2023-09-08T13:31:53;34.40;97.60
39219;DHT22;24934;52.752;6.964;2023-09-08T13:34:19;34.40;96.70
39219;DHT22;24934;52.752;6.964;2023-09-08T13:36:45;34.20;97.20
39219;DHT22;24934;52.752;6.964;2023-09-08T13:39:10;34.40;98.30
39219;DHT22;24934;52.752;6.964;2023-09-08T13:41:51;34.30;97.80
39219;DHT22;24934;52.752;6.964;2023-09-08T13:44:21;34.10;98.60
39219;DHT22;24934;52.752;6.964;2023-09-08T13:46:48;34.50;98.70
39219;DHT22;24934;52.752;6.964;2023-09-08T13:49:14;34.80;97.70
39219;DHT22;24934;52.752;6.964;2023-09-08T13:51:43;34.80;96.90
39219;DHT22;24934;52.752;6.964;2023-09-08T13:54:10;34.50;97.40
39219;DHT22;24934;52.752;6.964;2023-09-08T13:56:39;34.60;97.80
39219;DHT22;24934;52.752;6.964;2023-09-08T13:59:05;34.70;97.80
39219;DHT22;24934;52.752;6.964;2023-09-08T14:01:33;34.80;97.20
39219;DHT22;24934;52.752;6.964;2023-09-08T14:03:59;34.80;97.50
39219;DHT22;24934;52.752;6.964;2023-09-08T14:06:26;34.70;97.70
39219;DHT22;24934;52.752;6.964;2023-09-08T14:08:52;34.60;97.60
39219;DHT22;24934;52.752;6.964;2023-09-08T14:11:18;34.40;97.50
39219;DHT22;24934;52.752;6.964;2023-09-08T14:13:44;34.50;98.00
39219;DHT22;24934;52.752;6.964;2023-09-08T14:16:13;34.60;97.90
39219;DHT22;24934;52.752;6.964;2023-09-08T14:18:38;34.70;98.50
39219;DHT22;24934;52.752;6.964;2023-09-08T14:21:05;34.50;98.50
39219;DHT22;24934;52.752;6.964;2023-09-08T14:23:30;34.40;97.40
39219;DHT22;24934;52.752;6.964;2023-09-08T14:25:56;34.40;97.50
39219;DHT22;24934;52.752;6.964;2023-09-08T14:28:22;34.60;96.90
39219;DHT22;24934;52.752;6.964;2023-09-08T14:30:50;34.50;97.40
39219;DHT22;24934;52.752;6.964;2023-09-08T14:33:16;34.30;97.40
39219;DHT22;24934;52.752;6.964;2023-09-08T14:35:43;34.30;97.10
39219;DHT22;24934;52.752;6.964;2023-09-08T14:38:09;34.30;97.00
39219;DHT22;24934;52.752;6.964;2023-09-08T14:40:34;34.20;97.30
39219;DHT22;24934;52.752;6.964;2023-09-08T14:43:00;34.10;96.90
39219;DHT22;24934;52.752;6.964;2023-09-08T14:45:26;34.10;96.90
39219;DHT22;24934;52.752;6.964;2023-09-08T14:47:54;33.90;97.20
39219;DHT22;24934;52.752;6.964;2023-09-08T14:50:20;33.90;96.80
39219;DHT22;24934;52.752;6.964;2023-09-08T14:52:45;33.60;98.00
39219;DHT22;24934;52.752;6.964;2023-09-08T14:55:11;33.10;97.90
39219;DHT22;24934;52.752;6.964;2023-09-08T14:57:42;33.20;97.50
39219;DHT22;24934;52.752;6.964;2023-09-08T15:00:08;33.40;97.60
39219;DHT22;24934;52.752;6.964;2023-09-08T15:02:35;33.40;97.20
39219;DHT22;24934;52.752;6.964;2023-09-08T15:05:00;33.40;97.80
39219;DHT22;24934;52.752;6.964;2023-09-08T15:07:26;33.30;97.50
39219;DHT22;24934;52.752;6.964;2023-09-08T15:09:52;33.40;97.50
39219;DHT22;24934;52.752;6.964;2023-09-08T15:12:18;33.30;97.10
39219;DHT22;24934;52.752;6.964;2023-09-08T15:14:43;33.40;97.10
39219;DHT22;24934;52.752;6.964;2023-09-08T15:17:12;33.40;97.50
39219;DHT22;24934;52.752;6.964;2023-09-08T15:19:41;33.60;96.50
39219;DHT22;24934;52.752;6.964;2023-09-08T15:22:10;33.60;96.80
39219;DHT22;24934;52.752;6.964;2023-09-08T15:24:38;33.60;96.20
39219;DHT22;24934;52.752;6.964;2023-09-08T15:27:04;33.60;96.20
39219;DHT22;24934;52.752;6.964;2023-09-08T15:29:29;33.50;96.50
39219;DHT22;24934;52.752;6.964;2023-09-08T15:31:55;33.50;95.70
39219;DHT22;24934;52.752;6.964;2023-09-08T15:34:20;33.40;96.30